<?xml version="1.0" encoding="UTF-8" standalone="no" ?>
<gpx xmlns="http://www.topografix.com/GPX/1/1" xmlns:xsi="http://www.w3.org/2001/XMLSchema-instance" xsi:schemaLocation="http://www.topografix.com/GPX/1/1 http://www.topografix.com/GPX/1/1/gpx.xsd" version="1.1" creator="VisuGPX - https://www.visugpx.com">
  <metadata>
    <name>Parcours VTT Aglo 2021</name>
  </metadata>
  <trk>
    <name><![CDATA[Vert Cornillon St Gely]]></name>
    <extensions>
      <line xmlns="http://www.topografix.com/GPX/gpx_style/0/2">
        <color>00ff00</color>
        <width>4</width>
      </line>
    </extensions>
    <trkseg>
      <trkpt lat="44.21863" lon="4.48573">
        <ele>87</ele>
        <time>2021-07-04T12:59:42Z</time>
      </trkpt>
      <trkpt lat="44.21863" lon="4.48573">
        <ele>87</ele>
        <time>2021-07-04T12:59:42Z</time>
      </trkpt>
      <trkpt lat="44.21864" lon="4.48571">
        <ele>87</ele>
        <time>2021-07-04T12:59:42Z</time>
      </trkpt>
      <trkpt lat="44.21861" lon="4.48566">
        <ele>87</ele>
        <time>2021-07-04T12:59:43Z</time>
      </trkpt>
      <trkpt lat="44.21855" lon="4.48558">
        <ele>86</ele>
        <time>2021-07-04T12:59:45Z</time>
      </trkpt>
      <trkpt lat="44.21853" lon="4.48557">
        <ele>86</ele>
        <time>2021-07-04T12:59:46Z</time>
      </trkpt>
      <trkpt lat="44.21846" lon="4.48547">
        <ele>86</ele>
        <time>2021-07-04T12:59:48Z</time>
      </trkpt>
      <trkpt lat="44.21837" lon="4.48528">
        <ele>85</ele>
        <time>2021-07-04T12:59:52Z</time>
      </trkpt>
      <trkpt lat="44.21832" lon="4.4852">
        <ele>84</ele>
        <time>2021-07-04T12:59:54Z</time>
      </trkpt>
      <trkpt lat="44.21828" lon="4.48524">
        <ele>85</ele>
        <time>2021-07-04T12:59:55Z</time>
      </trkpt>
      <trkpt lat="44.21801" lon="4.48546">
        <ele>87</ele>
        <time>2021-07-04T13:00:02Z</time>
      </trkpt>
      <trkpt lat="44.21731" lon="4.48476">
        <ele>86</ele>
        <time>2021-07-04T13:00:22Z</time>
      </trkpt>
      <trkpt lat="44.21697" lon="4.4844">
        <ele>84</ele>
        <time>2021-07-04T13:00:32Z</time>
      </trkpt>
      <trkpt lat="44.21586" lon="4.48329">
        <ele>76</ele>
        <time>2021-07-04T13:01:04Z</time>
      </trkpt>
      <trkpt lat="44.21549" lon="4.48296">
        <ele>76</ele>
        <time>2021-07-04T13:01:15Z</time>
      </trkpt>
      <trkpt lat="44.21479" lon="4.4825">
        <ele>77</ele>
        <time>2021-07-04T13:01:33Z</time>
      </trkpt>
      <trkpt lat="44.21443" lon="4.48231">
        <ele>76</ele>
        <time>2021-07-04T13:01:42Z</time>
      </trkpt>
      <trkpt lat="44.21258" lon="4.48162">
        <ele>79</ele>
        <time>2021-07-04T13:02:26Z</time>
      </trkpt>
      <trkpt lat="44.21254" lon="4.48161">
        <ele>79</ele>
        <time>2021-07-04T13:02:27Z</time>
      </trkpt>
      <trkpt lat="44.21238" lon="4.48237">
        <ele>77</ele>
        <time>2021-07-04T13:02:41Z</time>
      </trkpt>
      <trkpt lat="44.21227" lon="4.48276">
        <ele>77</ele>
        <time>2021-07-04T13:02:48Z</time>
      </trkpt>
      <trkpt lat="44.21221" lon="4.48291">
        <ele>77</ele>
        <time>2021-07-04T13:02:50Z</time>
      </trkpt>
      <trkpt lat="44.21214" lon="4.48307">
        <ele>78</ele>
        <time>2021-07-04T13:02:54Z</time>
      </trkpt>
      <trkpt lat="44.21198" lon="4.48323">
        <ele>78</ele>
        <time>2021-07-04T13:02:58Z</time>
      </trkpt>
      <trkpt lat="44.21191" lon="4.48328">
        <ele>79</ele>
        <time>2021-07-04T13:03:00Z</time>
      </trkpt>
      <trkpt lat="44.21184" lon="4.48338">
        <ele>79</ele>
        <time>2021-07-04T13:03:02Z</time>
      </trkpt>
      <trkpt lat="44.21175" lon="4.4836">
        <ele>79</ele>
        <time>2021-07-04T13:03:07Z</time>
      </trkpt>
      <trkpt lat="44.2117" lon="4.48367">
        <ele>80</ele>
        <time>2021-07-04T13:03:08Z</time>
      </trkpt>
      <trkpt lat="44.21169" lon="4.48367">
        <ele>80</ele>
        <time>2021-07-04T13:03:08Z</time>
      </trkpt>
      <trkpt lat="44.21171" lon="4.48378">
        <ele>79</ele>
        <time>2021-07-04T13:03:10Z</time>
      </trkpt>
      <trkpt lat="44.21169" lon="4.48367">
        <ele>80</ele>
        <time>2021-07-04T13:03:12Z</time>
      </trkpt>
      <trkpt lat="44.21163" lon="4.4837">
        <ele>80</ele>
        <time>2021-07-04T13:03:14Z</time>
      </trkpt>
      <trkpt lat="44.21151" lon="4.48366">
        <ele>80</ele>
        <time>2021-07-04T13:03:17Z</time>
      </trkpt>
      <trkpt lat="44.21124" lon="4.48352">
        <ele>80</ele>
        <time>2021-07-04T13:03:23Z</time>
      </trkpt>
      <trkpt lat="44.21097" lon="4.48338">
        <ele>80</ele>
        <time>2021-07-04T13:03:30Z</time>
      </trkpt>
      <trkpt lat="44.21091" lon="4.48339">
        <ele>80</ele>
        <time>2021-07-04T13:03:31Z</time>
      </trkpt>
      <trkpt lat="44.21078" lon="4.48368">
        <ele>80</ele>
        <time>2021-07-04T13:03:37Z</time>
      </trkpt>
      <trkpt lat="44.21063" lon="4.48419">
        <ele>79</ele>
        <time>2021-07-04T13:03:46Z</time>
      </trkpt>
      <trkpt lat="44.21048" lon="4.48468">
        <ele>79</ele>
        <time>2021-07-04T13:03:55Z</time>
      </trkpt>
      <trkpt lat="44.21032" lon="4.48508">
        <ele>79</ele>
        <time>2021-07-04T13:04:03Z</time>
      </trkpt>
      <trkpt lat="44.21026" lon="4.48524">
        <ele>79</ele>
        <time>2021-07-04T13:04:06Z</time>
      </trkpt>
      <trkpt lat="44.21017" lon="4.48542">
        <ele>79</ele>
        <time>2021-07-04T13:04:10Z</time>
      </trkpt>
      <trkpt lat="44.21002" lon="4.48576">
        <ele>79</ele>
        <time>2021-07-04T13:04:16Z</time>
      </trkpt>
      <trkpt lat="44.20988" lon="4.48612">
        <ele>80</ele>
        <time>2021-07-04T13:04:23Z</time>
      </trkpt>
      <trkpt lat="44.20974" lon="4.48648">
        <ele>81</ele>
        <time>2021-07-04T13:04:30Z</time>
      </trkpt>
      <trkpt lat="44.20973" lon="4.48654">
        <ele>81</ele>
        <time>2021-07-04T13:04:31Z</time>
      </trkpt>
      <trkpt lat="44.20946" lon="4.48745">
        <ele>80</ele>
        <time>2021-07-04T13:04:48Z</time>
      </trkpt>
      <trkpt lat="44.20933" lon="4.48789">
        <ele>80</ele>
        <time>2021-07-04T13:04:56Z</time>
      </trkpt>
      <trkpt lat="44.20922" lon="4.4884">
        <ele>80</ele>
        <time>2021-07-04T13:05:05Z</time>
      </trkpt>
      <trkpt lat="44.20911" lon="4.48891">
        <ele>82</ele>
        <time>2021-07-04T13:05:13Z</time>
      </trkpt>
      <trkpt lat="44.20899" lon="4.48978">
        <ele>82</ele>
        <time>2021-07-04T13:05:28Z</time>
      </trkpt>
      <trkpt lat="44.20888" lon="4.49039">
        <ele>83</ele>
        <time>2021-07-04T13:05:39Z</time>
      </trkpt>
      <trkpt lat="44.2085" lon="4.49027">
        <ele>83</ele>
        <time>2021-07-04T13:05:48Z</time>
      </trkpt>
      <trkpt lat="44.20837" lon="4.49025">
        <ele>83</ele>
        <time>2021-07-04T13:05:51Z</time>
      </trkpt>
      <trkpt lat="44.20836" lon="4.49023">
        <ele>83</ele>
        <time>2021-07-04T13:05:51Z</time>
      </trkpt>
      <trkpt lat="44.20819" lon="4.49015">
        <ele>84</ele>
        <time>2021-07-04T13:05:56Z</time>
      </trkpt>
      <trkpt lat="44.20788" lon="4.49002">
        <ele>86</ele>
        <time>2021-07-04T13:06:03Z</time>
      </trkpt>
      <trkpt lat="44.20762" lon="4.48993">
        <ele>88</ele>
        <time>2021-07-04T13:06:09Z</time>
      </trkpt>
      <trkpt lat="44.20736" lon="4.48982">
        <ele>91</ele>
        <time>2021-07-04T13:06:16Z</time>
      </trkpt>
      <trkpt lat="44.20702" lon="4.48981">
        <ele>97</ele>
        <time>2021-07-04T13:06:24Z</time>
      </trkpt>
      <trkpt lat="44.20691" lon="4.48976">
        <ele>99</ele>
        <time>2021-07-04T13:06:26Z</time>
      </trkpt>
      <trkpt lat="44.20692" lon="4.48979">
        <ele>99</ele>
        <time>2021-07-04T13:06:27Z</time>
      </trkpt>
      <trkpt lat="44.20692" lon="4.49011">
        <ele>98</ele>
        <time>2021-07-04T13:06:32Z</time>
      </trkpt>
      <trkpt lat="44.20693" lon="4.49046">
        <ele>98</ele>
        <time>2021-07-04T13:06:38Z</time>
      </trkpt>
      <trkpt lat="44.20701" lon="4.49142">
        <ele>96</ele>
        <time>2021-07-04T13:06:54Z</time>
      </trkpt>
      <trkpt lat="44.20704" lon="4.49176">
        <ele>95</ele>
        <time>2021-07-04T13:07:00Z</time>
      </trkpt>
      <trkpt lat="44.20719" lon="4.49223">
        <ele>94</ele>
        <time>2021-07-04T13:07:09Z</time>
      </trkpt>
      <trkpt lat="44.20733" lon="4.49268">
        <ele>93</ele>
        <time>2021-07-04T13:07:17Z</time>
      </trkpt>
      <trkpt lat="44.20759" lon="4.49324">
        <ele>91</ele>
        <time>2021-07-04T13:07:28Z</time>
      </trkpt>
      <trkpt lat="44.20767" lon="4.49342">
        <ele>90</ele>
        <time>2021-07-04T13:07:32Z</time>
      </trkpt>
      <trkpt lat="44.20773" lon="4.4936">
        <ele>90</ele>
        <time>2021-07-04T13:07:35Z</time>
      </trkpt>
      <trkpt lat="44.20778" lon="4.49379">
        <ele>89</ele>
        <time>2021-07-04T13:07:38Z</time>
      </trkpt>
      <trkpt lat="44.20782" lon="4.49395">
        <ele>89</ele>
        <time>2021-07-04T13:07:41Z</time>
      </trkpt>
      <trkpt lat="44.20787" lon="4.49408">
        <ele>89</ele>
        <time>2021-07-04T13:07:44Z</time>
      </trkpt>
      <trkpt lat="44.20789" lon="4.49409">
        <ele>89</ele>
        <time>2021-07-04T13:07:44Z</time>
      </trkpt>
      <trkpt lat="44.20774" lon="4.49405">
        <ele>89</ele>
        <time>2021-07-04T13:07:48Z</time>
      </trkpt>
      <trkpt lat="44.20754" lon="4.49408">
        <ele>90</ele>
        <time>2021-07-04T13:07:52Z</time>
      </trkpt>
      <trkpt lat="44.20713" lon="4.49424">
        <ele>91</ele>
        <time>2021-07-04T13:08:02Z</time>
      </trkpt>
      <trkpt lat="44.20661" lon="4.49447">
        <ele>93</ele>
        <time>2021-07-04T13:08:15Z</time>
      </trkpt>
      <trkpt lat="44.20653" lon="4.4945">
        <ele>93</ele>
        <time>2021-07-04T13:08:17Z</time>
      </trkpt>
      <trkpt lat="44.20638" lon="4.49464">
        <ele>94</ele>
        <time>2021-07-04T13:08:21Z</time>
      </trkpt>
      <trkpt lat="44.20632" lon="4.49467">
        <ele>94</ele>
        <time>2021-07-04T13:08:23Z</time>
      </trkpt>
      <trkpt lat="44.20624" lon="4.49468">
        <ele>95</ele>
        <time>2021-07-04T13:08:25Z</time>
      </trkpt>
      <trkpt lat="44.2062" lon="4.49468">
        <ele>95</ele>
        <time>2021-07-04T13:08:25Z</time>
      </trkpt>
      <trkpt lat="44.20615" lon="4.49464">
        <ele>96</ele>
        <time>2021-07-04T13:08:27Z</time>
      </trkpt>
      <trkpt lat="44.20611" lon="4.49462">
        <ele>96</ele>
        <time>2021-07-04T13:08:28Z</time>
      </trkpt>
      <trkpt lat="44.20579" lon="4.49412">
        <ele>100</ele>
        <time>2021-07-04T13:08:39Z</time>
      </trkpt>
      <trkpt lat="44.20572" lon="4.49399">
        <ele>101</ele>
        <time>2021-07-04T13:08:42Z</time>
      </trkpt>
      <trkpt lat="44.20568" lon="4.49385">
        <ele>102</ele>
        <time>2021-07-04T13:08:44Z</time>
      </trkpt>
      <trkpt lat="44.20572" lon="4.49341">
        <ele>103</ele>
        <time>2021-07-04T13:08:52Z</time>
      </trkpt>
      <trkpt lat="44.20573" lon="4.49329">
        <ele>103</ele>
        <time>2021-07-04T13:08:54Z</time>
      </trkpt>
      <trkpt lat="44.20571" lon="4.49316">
        <ele>104</ele>
        <time>2021-07-04T13:08:56Z</time>
      </trkpt>
      <trkpt lat="44.20568" lon="4.49305">
        <ele>104</ele>
        <time>2021-07-04T13:08:58Z</time>
      </trkpt>
      <trkpt lat="44.20528" lon="4.49273">
        <ele>108</ele>
        <time>2021-07-04T13:09:09Z</time>
      </trkpt>
      <trkpt lat="44.20521" lon="4.49267">
        <ele>109</ele>
        <time>2021-07-04T13:09:11Z</time>
      </trkpt>
      <trkpt lat="44.20482" lon="4.49243">
        <ele>112</ele>
        <time>2021-07-04T13:09:21Z</time>
      </trkpt>
      <trkpt lat="44.2047" lon="4.49234">
        <ele>113</ele>
        <time>2021-07-04T13:09:24Z</time>
      </trkpt>
      <trkpt lat="44.20468" lon="4.49231">
        <ele>113</ele>
        <time>2021-07-04T13:09:24Z</time>
      </trkpt>
      <trkpt lat="44.20457" lon="4.49225">
        <ele>113</ele>
        <time>2021-07-04T13:09:27Z</time>
      </trkpt>
      <trkpt lat="44.20445" lon="4.4922">
        <ele>114</ele>
        <time>2021-07-04T13:09:30Z</time>
      </trkpt>
      <trkpt lat="44.20434" lon="4.49211">
        <ele>114</ele>
        <time>2021-07-04T13:09:33Z</time>
      </trkpt>
      <trkpt lat="44.20432" lon="4.49203">
        <ele>114</ele>
        <time>2021-07-04T13:09:35Z</time>
      </trkpt>
      <trkpt lat="44.20431" lon="4.49188">
        <ele>114</ele>
        <time>2021-07-04T13:09:37Z</time>
      </trkpt>
      <trkpt lat="44.2043" lon="4.49142">
        <ele>111</ele>
        <time>2021-07-04T13:09:45Z</time>
      </trkpt>
      <trkpt lat="44.20428" lon="4.4913">
        <ele>111</ele>
        <time>2021-07-04T13:09:47Z</time>
      </trkpt>
      <trkpt lat="44.20425" lon="4.49119">
        <ele>110</ele>
        <time>2021-07-04T13:09:49Z</time>
      </trkpt>
      <trkpt lat="44.20416" lon="4.49095">
        <ele>109</ele>
        <time>2021-07-04T13:09:53Z</time>
      </trkpt>
      <trkpt lat="44.20404" lon="4.49073">
        <ele>108</ele>
        <time>2021-07-04T13:09:58Z</time>
      </trkpt>
      <trkpt lat="44.20398" lon="4.49054">
        <ele>107</ele>
        <time>2021-07-04T13:10:01Z</time>
      </trkpt>
      <trkpt lat="44.20399" lon="4.49048">
        <ele>107</ele>
        <time>2021-07-04T13:10:02Z</time>
      </trkpt>
      <trkpt lat="44.20391" lon="4.49038">
        <ele>107</ele>
        <time>2021-07-04T13:10:05Z</time>
      </trkpt>
      <trkpt lat="44.20346" lon="4.48996">
        <ele>105</ele>
        <time>2021-07-04T13:10:18Z</time>
      </trkpt>
      <trkpt lat="44.20339" lon="4.4899">
        <ele>105</ele>
        <time>2021-07-04T13:10:20Z</time>
      </trkpt>
      <trkpt lat="44.20304" lon="4.48981">
        <ele>104</ele>
        <time>2021-07-04T13:10:28Z</time>
      </trkpt>
      <trkpt lat="44.20281" lon="4.48975">
        <ele>104</ele>
        <time>2021-07-04T13:10:33Z</time>
      </trkpt>
      <trkpt lat="44.20273" lon="4.48971">
        <ele>103</ele>
        <time>2021-07-04T13:10:35Z</time>
      </trkpt>
      <trkpt lat="44.20265" lon="4.48966">
        <ele>103</ele>
        <time>2021-07-04T13:10:37Z</time>
      </trkpt>
      <trkpt lat="44.20257" lon="4.48958">
        <ele>103</ele>
        <time>2021-07-04T13:10:40Z</time>
      </trkpt>
      <trkpt lat="44.20249" lon="4.48949">
        <ele>102</ele>
        <time>2021-07-04T13:10:42Z</time>
      </trkpt>
      <trkpt lat="44.20242" lon="4.48939">
        <ele>101</ele>
        <time>2021-07-04T13:10:44Z</time>
      </trkpt>
      <trkpt lat="44.20237" lon="4.48928">
        <ele>100</ele>
        <time>2021-07-04T13:10:47Z</time>
      </trkpt>
      <trkpt lat="44.2023" lon="4.48906">
        <ele>98</ele>
        <time>2021-07-04T13:10:51Z</time>
      </trkpt>
      <trkpt lat="44.20221" lon="4.48863">
        <ele>96</ele>
        <time>2021-07-04T13:10:58Z</time>
      </trkpt>
      <trkpt lat="44.20214" lon="4.48846">
        <ele>95</ele>
        <time>2021-07-04T13:11:01Z</time>
      </trkpt>
      <trkpt lat="44.20194" lon="4.48834">
        <ele>94</ele>
        <time>2021-07-04T13:11:06Z</time>
      </trkpt>
      <trkpt lat="44.20175" lon="4.4882">
        <ele>94</ele>
        <time>2021-07-04T13:11:11Z</time>
      </trkpt>
      <trkpt lat="44.20164" lon="4.48813">
        <ele>93</ele>
        <time>2021-07-04T13:11:14Z</time>
      </trkpt>
      <trkpt lat="44.20157" lon="4.4881">
        <ele>93</ele>
        <time>2021-07-04T13:11:16Z</time>
      </trkpt>
      <trkpt lat="44.2015" lon="4.48805">
        <ele>92</ele>
        <time>2021-07-04T13:11:18Z</time>
      </trkpt>
      <trkpt lat="44.20146" lon="4.488">
        <ele>92</ele>
        <time>2021-07-04T13:11:19Z</time>
      </trkpt>
      <trkpt lat="44.20145" lon="4.488">
        <ele>92</ele>
        <time>2021-07-04T13:11:19Z</time>
      </trkpt>
      <trkpt lat="44.20137" lon="4.48789">
        <ele>92</ele>
        <time>2021-07-04T13:11:22Z</time>
      </trkpt>
      <trkpt lat="44.20134" lon="4.48777">
        <ele>92</ele>
        <time>2021-07-04T13:11:24Z</time>
      </trkpt>
      <trkpt lat="44.2013" lon="4.48765">
        <ele>92</ele>
        <time>2021-07-04T13:11:26Z</time>
      </trkpt>
      <trkpt lat="44.20138" lon="4.48702">
        <ele>95</ele>
        <time>2021-07-04T13:11:37Z</time>
      </trkpt>
      <trkpt lat="44.20139" lon="4.48684">
        <ele>96</ele>
        <time>2021-07-04T13:11:40Z</time>
      </trkpt>
      <trkpt lat="44.20138" lon="4.48671">
        <ele>96</ele>
        <time>2021-07-04T13:11:42Z</time>
      </trkpt>
      <trkpt lat="44.20132" lon="4.48641">
        <ele>97</ele>
        <time>2021-07-04T13:11:47Z</time>
      </trkpt>
      <trkpt lat="44.20122" lon="4.48613">
        <ele>98</ele>
        <time>2021-07-04T13:11:53Z</time>
      </trkpt>
      <trkpt lat="44.20121" lon="4.48603">
        <ele>99</ele>
        <time>2021-07-04T13:11:54Z</time>
      </trkpt>
      <trkpt lat="44.20119" lon="4.4859">
        <ele>99</ele>
        <time>2021-07-04T13:11:57Z</time>
      </trkpt>
      <trkpt lat="44.2012" lon="4.48579">
        <ele>100</ele>
        <time>2021-07-04T13:11:58Z</time>
      </trkpt>
      <trkpt lat="44.20122" lon="4.48572">
        <ele>100</ele>
        <time>2021-07-04T13:12:00Z</time>
      </trkpt>
      <trkpt lat="44.20122" lon="4.48564">
        <ele>101</ele>
        <time>2021-07-04T13:12:01Z</time>
      </trkpt>
      <trkpt lat="44.2011" lon="4.48539">
        <ele>101</ele>
        <time>2021-07-04T13:12:06Z</time>
      </trkpt>
      <trkpt lat="44.20105" lon="4.48509">
        <ele>102</ele>
        <time>2021-07-04T13:12:11Z</time>
      </trkpt>
      <trkpt lat="44.20085" lon="4.48476">
        <ele>103</ele>
        <time>2021-07-04T13:12:18Z</time>
      </trkpt>
      <trkpt lat="44.20063" lon="4.48444">
        <ele>104</ele>
        <time>2021-07-04T13:12:26Z</time>
      </trkpt>
      <trkpt lat="44.20044" lon="4.48413">
        <ele>105</ele>
        <time>2021-07-04T13:12:33Z</time>
      </trkpt>
      <trkpt lat="44.2003" lon="4.48387">
        <ele>106</ele>
        <time>2021-07-04T13:12:38Z</time>
      </trkpt>
      <trkpt lat="44.2001" lon="4.48364">
        <ele>107</ele>
        <time>2021-07-04T13:12:44Z</time>
      </trkpt>
      <trkpt lat="44.19997" lon="4.48336">
        <ele>109</ele>
        <time>2021-07-04T13:12:50Z</time>
      </trkpt>
      <trkpt lat="44.19987" lon="4.48312">
        <ele>109</ele>
        <time>2021-07-04T13:12:54Z</time>
      </trkpt>
      <trkpt lat="44.19977" lon="4.48266">
        <ele>109</ele>
        <time>2021-07-04T13:13:02Z</time>
      </trkpt>
      <trkpt lat="44.19974" lon="4.48237">
        <ele>109</ele>
        <time>2021-07-04T13:13:07Z</time>
      </trkpt>
      <trkpt lat="44.19973" lon="4.48214">
        <ele>107</ele>
        <time>2021-07-04T13:13:11Z</time>
      </trkpt>
      <trkpt lat="44.19964" lon="4.48202">
        <ele>106</ele>
        <time>2021-07-04T13:13:14Z</time>
      </trkpt>
      <trkpt lat="44.19964" lon="4.48194">
        <ele>105</ele>
        <time>2021-07-04T13:13:15Z</time>
      </trkpt>
      <trkpt lat="44.19964" lon="4.48189">
        <ele>105</ele>
        <time>2021-07-04T13:13:16Z</time>
      </trkpt>
      <trkpt lat="44.19969" lon="4.4818">
        <ele>105</ele>
        <time>2021-07-04T13:13:18Z</time>
      </trkpt>
      <trkpt lat="44.19979" lon="4.48165">
        <ele>106</ele>
        <time>2021-07-04T13:13:22Z</time>
      </trkpt>
      <trkpt lat="44.19991" lon="4.48146">
        <ele>106</ele>
        <time>2021-07-04T13:13:26Z</time>
      </trkpt>
      <trkpt lat="44.1999" lon="4.4812">
        <ele>104</ele>
        <time>2021-07-04T13:13:30Z</time>
      </trkpt>
      <trkpt lat="44.19995" lon="4.48096">
        <ele>103</ele>
        <time>2021-07-04T13:13:34Z</time>
      </trkpt>
      <trkpt lat="44.20028" lon="4.48035">
        <ele>102</ele>
        <time>2021-07-04T13:13:47Z</time>
      </trkpt>
      <trkpt lat="44.20047" lon="4.48028">
        <ele>103</ele>
        <time>2021-07-04T13:13:52Z</time>
      </trkpt>
      <trkpt lat="44.20057" lon="4.48002">
        <ele>101</ele>
        <time>2021-07-04T13:13:57Z</time>
      </trkpt>
      <trkpt lat="44.20072" lon="4.47959">
        <ele>101</ele>
        <time>2021-07-04T13:14:05Z</time>
      </trkpt>
      <trkpt lat="44.20069" lon="4.47906">
        <ele>100</ele>
        <time>2021-07-04T13:14:14Z</time>
      </trkpt>
      <trkpt lat="44.20107" lon="4.47894">
        <ele>100</ele>
        <time>2021-07-04T13:14:23Z</time>
      </trkpt>
      <trkpt lat="44.20143" lon="4.47895">
        <ele>99</ele>
        <time>2021-07-04T13:14:31Z</time>
      </trkpt>
      <trkpt lat="44.2018" lon="4.47895">
        <ele>99</ele>
        <time>2021-07-04T13:14:40Z</time>
      </trkpt>
      <trkpt lat="44.20216" lon="4.47896">
        <ele>99</ele>
        <time>2021-07-04T13:14:48Z</time>
      </trkpt>
      <trkpt lat="44.20232" lon="4.47895">
        <ele>99</ele>
        <time>2021-07-04T13:14:52Z</time>
      </trkpt>
      <trkpt lat="44.20262" lon="4.47912">
        <ele>100</ele>
        <time>2021-07-04T13:15:00Z</time>
      </trkpt>
      <trkpt lat="44.20292" lon="4.47907">
        <ele>99</ele>
        <time>2021-07-04T13:15:07Z</time>
      </trkpt>
      <trkpt lat="44.20316" lon="4.47902">
        <ele>99</ele>
        <time>2021-07-04T13:15:12Z</time>
      </trkpt>
      <trkpt lat="44.20374" lon="4.4788">
        <ele>99</ele>
        <time>2021-07-04T13:15:26Z</time>
      </trkpt>
      <trkpt lat="44.20385" lon="4.47848">
        <ele>99</ele>
        <time>2021-07-04T13:15:32Z</time>
      </trkpt>
      <trkpt lat="44.2042" lon="4.47847">
        <ele>99</ele>
        <time>2021-07-04T13:15:40Z</time>
      </trkpt>
      <trkpt lat="44.20448" lon="4.47851">
        <ele>100</ele>
        <time>2021-07-04T13:15:47Z</time>
      </trkpt>
      <trkpt lat="44.20476" lon="4.47852">
        <ele>100</ele>
        <time>2021-07-04T13:15:54Z</time>
      </trkpt>
      <trkpt lat="44.20477" lon="4.47855">
        <ele>101</ele>
        <time>2021-07-04T13:15:54Z</time>
      </trkpt>
      <trkpt lat="44.20515" lon="4.47856">
        <ele>101</ele>
        <time>2021-07-04T13:16:03Z</time>
      </trkpt>
      <trkpt lat="44.20553" lon="4.47856">
        <ele>100</ele>
        <time>2021-07-04T13:16:12Z</time>
      </trkpt>
      <trkpt lat="44.20579" lon="4.47859">
        <ele>99</ele>
        <time>2021-07-04T13:16:18Z</time>
      </trkpt>
      <trkpt lat="44.20604" lon="4.47865">
        <ele>100</ele>
        <time>2021-07-04T13:16:24Z</time>
      </trkpt>
      <trkpt lat="44.20639" lon="4.47874">
        <ele>100</ele>
        <time>2021-07-04T13:16:32Z</time>
      </trkpt>
      <trkpt lat="44.20664" lon="4.47884">
        <ele>100</ele>
        <time>2021-07-04T13:16:38Z</time>
      </trkpt>
      <trkpt lat="44.20682" lon="4.47895">
        <ele>99</ele>
        <time>2021-07-04T13:16:43Z</time>
      </trkpt>
      <trkpt lat="44.20702" lon="4.47906">
        <ele>99</ele>
        <time>2021-07-04T13:16:48Z</time>
      </trkpt>
      <trkpt lat="44.20731" lon="4.47919">
        <ele>98</ele>
        <time>2021-07-04T13:16:55Z</time>
      </trkpt>
      <trkpt lat="44.20749" lon="4.47925">
        <ele>97</ele>
        <time>2021-07-04T13:16:59Z</time>
      </trkpt>
      <trkpt lat="44.20764" lon="4.47933">
        <ele>96</ele>
        <time>2021-07-04T13:17:03Z</time>
      </trkpt>
      <trkpt lat="44.20767" lon="4.47934">
        <ele>96</ele>
        <time>2021-07-04T13:17:04Z</time>
      </trkpt>
      <trkpt lat="44.20774" lon="4.47942">
        <ele>95</ele>
        <time>2021-07-04T13:17:06Z</time>
      </trkpt>
      <trkpt lat="44.20792" lon="4.47953">
        <ele>94</ele>
        <time>2021-07-04T13:17:10Z</time>
      </trkpt>
      <trkpt lat="44.20807" lon="4.4796">
        <ele>93</ele>
        <time>2021-07-04T13:17:14Z</time>
      </trkpt>
      <trkpt lat="44.20825" lon="4.47967">
        <ele>92</ele>
        <time>2021-07-04T13:17:19Z</time>
      </trkpt>
      <trkpt lat="44.20842" lon="4.47977">
        <ele>91</ele>
        <time>2021-07-04T13:17:23Z</time>
      </trkpt>
      <trkpt lat="44.20859" lon="4.47985">
        <ele>90</ele>
        <time>2021-07-04T13:17:27Z</time>
      </trkpt>
      <trkpt lat="44.20882" lon="4.47992">
        <ele>89</ele>
        <time>2021-07-04T13:17:33Z</time>
      </trkpt>
      <trkpt lat="44.20907" lon="4.48001">
        <ele>88</ele>
        <time>2021-07-04T13:17:39Z</time>
      </trkpt>
      <trkpt lat="44.20929" lon="4.48014">
        <ele>88</ele>
        <time>2021-07-04T13:17:44Z</time>
      </trkpt>
      <trkpt lat="44.20933" lon="4.48017">
        <ele>88</ele>
        <time>2021-07-04T13:17:45Z</time>
      </trkpt>
      <trkpt lat="44.2101" lon="4.48048">
        <ele>86</ele>
        <time>2021-07-04T13:18:04Z</time>
      </trkpt>
      <trkpt lat="44.2105" lon="4.48063">
        <ele>85</ele>
        <time>2021-07-04T13:18:14Z</time>
      </trkpt>
      <trkpt lat="44.21085" lon="4.48081">
        <ele>84</ele>
        <time>2021-07-04T13:18:22Z</time>
      </trkpt>
      <trkpt lat="44.21115" lon="4.48096">
        <ele>85</ele>
        <time>2021-07-04T13:18:30Z</time>
      </trkpt>
      <trkpt lat="44.21128" lon="4.48104">
        <ele>85</ele>
        <time>2021-07-04T13:18:33Z</time>
      </trkpt>
      <trkpt lat="44.21153" lon="4.48122">
        <ele>84</ele>
        <time>2021-07-04T13:18:40Z</time>
      </trkpt>
      <trkpt lat="44.21169" lon="4.48132">
        <ele>84</ele>
        <time>2021-07-04T13:18:44Z</time>
      </trkpt>
      <trkpt lat="44.21187" lon="4.48141">
        <ele>83</ele>
        <time>2021-07-04T13:18:48Z</time>
      </trkpt>
      <trkpt lat="44.21211" lon="4.48149">
        <ele>82</ele>
        <time>2021-07-04T13:18:54Z</time>
      </trkpt>
      <trkpt lat="44.21214" lon="4.4815">
        <ele>82</ele>
        <time>2021-07-04T13:18:55Z</time>
      </trkpt>
      <trkpt lat="44.21254" lon="4.48161">
        <ele>79</ele>
        <time>2021-07-04T13:19:04Z</time>
      </trkpt>
      <trkpt lat="44.21417" lon="4.48221">
        <ele>76</ele>
        <time>2021-07-04T13:19:44Z</time>
      </trkpt>
      <trkpt lat="44.21443" lon="4.48231">
        <ele>76</ele>
        <time>2021-07-04T13:19:50Z</time>
      </trkpt>
      <trkpt lat="44.21479" lon="4.4825">
        <ele>77</ele>
        <time>2021-07-04T13:19:59Z</time>
      </trkpt>
      <trkpt lat="44.21568" lon="4.4831">
        <ele>76</ele>
        <time>2021-07-04T13:20:22Z</time>
      </trkpt>
      <trkpt lat="44.21775" lon="4.48518">
        <ele>87</ele>
        <time>2021-07-04T13:21:21Z</time>
      </trkpt>
      <trkpt lat="44.21802" lon="4.48555">
        <ele>88</ele>
        <time>2021-07-04T13:21:30Z</time>
      </trkpt>
      <trkpt lat="44.21824" lon="4.48533">
        <ele>86</ele>
        <time>2021-07-04T13:21:37Z</time>
      </trkpt>
      <trkpt lat="44.21839" lon="4.48554">
        <ele>87</ele>
        <time>2021-07-04T13:21:42Z</time>
      </trkpt>
    </trkseg>
  </trk>
</gpx>